BHB weather

Hancock County-Bar Harbor Airport
Bar Harbor, Maine, United States

Public forecast

Using degrees Fahrenheit for public forecast. Weather courtesy of forecast.io.

Current aviation weather report (METAR) for Hancock County-Bar Harbor Airport

Retrieved 2019/10/23 02:56 UTC (49 minutes ago):

KBHB 230256Z AUTO 09008G15KT 10SM OVC019 12/08 A3011 RMK AO2 SLP198 T01170078 55007

Aviation forecast (TAF) for Hancock County-Bar Harbor Airport

Retrieved 2019-10-23 00:39 UTC (3 hours ago):

TAF KBHB 222335Z 2300/2324 10010KT P6SM OVC080 FM230400 10010G18KT P6SM VCSH SCT015 OVC025 FM230700 10012G22KT 3SM -RA BR OVC010 WS020/14050KT FM231200 14020G30KT 1SM +RA BR OVC005 WS020/14050KT FM231800 18012G22KT 3SM -RA BR OVC005 FM232000 29010G18KT P6SM VCSH OVC015